sensor_id;sensor_type;location;lat;lon;timestamp;temperature;humidity
6654;DHT22;3363;50.942;7.034;2023-02-28T00:02:15;3.20;54.60
6654;DHT22;3363;50.942;7.034;2023-02-28T00:04:43;3.20;54.60
6654;DHT22;3363;50.942;7.034;2023-02-28T00:07:10;3.20;54.60
6654;DHT22;3363;50.942;7.034;2023-02-28T00:09:38;3.10;54.60
6654;DHT22;3363;50.942;7.034;2023-02-28T00:12:05;3.10;54.70
6654;DHT22;3363;50.942;7.034;2023-02-28T00:14:35;3.10;54.70
6654;DHT22;3363;50.942;7.034;2023-02-28T00:17:02;3.10;54.70
6654;DHT22;3363;50.942;7.034;2023-02-28T00:19:28;3.10;54.70
6654;DHT22;3363;50.942;7.034;2023-02-28T00:21:55;3.10;54.70
6654;DHT22;3363;50.942;7.034;2023-02-28T00:24:22;3.10;54.70
6654;DHT22;3363;50.942;7.034;2023-02-28T00:26:50;3.00;54.00
6654;DHT22;3363;50.942;7.034;2023-02-28T00:29:17;2.90;55.00
6654;DHT22;3363;50.942;7.034;2023-02-28T00:31:43;2.90;55.00
6654;DHT22;3363;50.942;7.034;2023-02-28T00:34:10;2.90;55.00
6654;DHT22;3363;50.942;7.034;2023-02-28T00:36:37;2.90;54.40
6654;DHT22;3363;50.942;7.034;2023-02-28T00:39:04;2.80;54.90
6654;DHT22;3363;50.942;7.034;2023-02-28T00:41:30;2.80;55.00
6654;DHT22;3363;50.942;7.034;2023-02-28T00:43:59;2.80;55.20
6654;DHT22;3363;50.942;7.034;2023-02-28T00:46:25;2.80;55.30
6654;DHT22;3363;50.942;7.034;2023-02-28T00:48:52;2.80;53.90
6654;DHT22;3363;50.942;7.034;2023-02-28T00:51:19;2.80;55.40
6654;DHT22;3363;50.942;7.034;2023-02-28T00:53:45;2.70;55.20
6654;DHT22;3363;50.942;7.034;2023-02-28T00:56:12;2.60;54.50
6654;DHT22;3363;50.942;7.034;2023-02-28T00:58:39;2.60;55.70
6654;DHT22;3363;50.942;7.034;2023-02-28T01:01:07;2.60;55.50
6654;DHT22;3363;50.942;7.034;2023-02-28T01:03:34;2.60;55.60
6654;DHT22;3363;50.942;7.034;2023-02-28T01:06:01;2.70;54.90
6654;DHT22;3363;50.942;7.034;2023-02-28T01:08:27;2.70;55.50
6654;DHT22;3363;50.942;7.034;2023-02-28T01:10:54;2.80;56.20
6654;DHT22;3363;50.942;7.034;2023-02-28T01:13:21;2.80;55.30
6654;DHT22;3363;50.942;7.034;2023-02-28T01:15:49;2.80;55.20
6654;DHT22;3363;50.942;7.034;2023-02-28T01:18:19;2.80;55.30
6654;DHT22;3363;50.942;7.034;2023-02-28T01:20:46;2.80;54.80
6654;DHT22;3363;50.942;7.034;2023-02-28T01:23:13;2.70;55.60
6654;DHT22;3363;50.942;7.034;2023-02-28T01:25:40;2.60;55.60
6654;DHT22;3363;50.942;7.034;2023-02-28T01:28:07;2.70;55.60
6654;DHT22;3363;50.942;7.034;2023-02-28T01:30:33;2.70;55.60
6654;DHT22;3363;50.942;7.034;2023-02-28T01:33:00;2.70;55.30
6654;DHT22;3363;50.942;7.034;2023-02-28T01:35:28;2.70;55.50
6654;DHT22;3363;50.942;7.034;2023-02-28T01:37:58;2.70;55.40
6654;DHT22;3363;50.942;7.034;2023-02-28T01:40:24;2.70;55.20
6654;DHT22;3363;50.942;7.034;2023-02-28T01:42:51;2.60;55.20
6654;DHT22;3363;50.942;7.034;2023-02-28T01:45:19;2.60;55.70
6654;DHT22;3363;50.942;7.034;2023-02-28T01:47:46;2.60;55.70
6654;DHT22;3363;50.942;7.034;2023-02-28T01:50:21;2.60;54.90
6654;DHT22;3363;50.942;7.034;2023-02-28T01:52:50;2.50;55.80
6654;DHT22;3363;50.942;7.034;2023-02-28T01:55:17;2.50;55.90
6654;DHT22;3363;50.942;7.034;2023-02-28T01:57:45;2.50;56.10
6654;DHT22;3363;50.942;7.034;2023-02-28T02:00:14;2.50;56.00
6654;DHT22;3363;50.942;7.034;2023-02-28T02:02:41;2.60;56.00
6654;DHT22;3363;50.942;7.034;2023-02-28T02:05:10;2.50;55.70
6654;DHT22;3363;50.942;7.034;2023-02-28T02:07:38;2.60;55.80
6654;DHT22;3363;50.942;7.034;2023-02-28T02:10:10;2.60;55.80
6654;DHT22;3363;50.942;7.034;2023-02-28T02:15:23;2.60;55.70
6654;DHT22;3363;50.942;7.034;2023-02-28T02:17:53;2.60;55.60
6654;DHT22;3363;50.942;7.034;2023-02-28T02:20:34;2.50;55.60
6654;DHT22;3363;50.942;7.034;2023-02-28T02:23:18;2.60;55.60
6654;DHT22;3363;50.942;7.034;2023-02-28T02:25:49;2.60;55.50
6654;DHT22;3363;50.942;7.034;2023-02-28T02:34:04;2.50;55.50
6654;DHT22;3363;50.942;7.034;2023-02-28T02:36:33;2.50;55.40
6654;DHT22;3363;50.942;7.034;2023-02-28T02:39:04;2.50;55.50
6654;DHT22;3363;50.942;7.034;2023-02-28T02:41:33;2.50;55.70
6654;DHT22;3363;50.942;7.034;2023-02-28T02:44:02;2.40;55.60
6654;DHT22;3363;50.942;7.034;2023-02-28T02:46:32;2.40;55.70
6654;DHT22;3363;50.942;7.034;2023-02-28T02:49:08;2.40;55.80
6654;DHT22;3363;50.942;7.034;2023-02-28T02:51:35;2.40;55.90
6654;DHT22;3363;50.942;7.034;2023-02-28T02:54:05;2.40;55.80
6654;DHT22;3363;50.942;7.034;2023-02-28T02:56:34;2.40;55.90
6654;DHT22;3363;50.942;7.034;2023-02-28T02:59:02;2.40;55.80
6654;DHT22;3363;50.942;7.034;2023-02-28T03:01:30;2.40;55.80
6654;DHT22;3363;50.942;7.034;2023-02-28T03:03:58;2.40;55.80
6654;DHT22;3363;50.942;7.034;2023-02-28T03:06:27;2.40;55.70
6654;DHT22;3363;50.942;7.034;2023-02-28T03:08:54;2.30;55.60
6654;DHT22;3363;50.942;7.034;2023-02-28T03:11:20;2.40;55.80
6654;DHT22;3363;50.942;7.034;2023-02-28T03:16:36;2.30;55.70
6654;DHT22;3363;50.942;7.034;2023-02-28T03:19:18;2.30;55.70
6654;DHT22;3363;50.942;7.034;2023-02-28T03:21:53;2.30;55.60
6654;DHT22;3363;50.942;7.034;2023-02-28T03:24:24;2.30;55.70
6654;DHT22;3363;50.942;7.034;2023-02-28T03:26:55;2.30;55.90
6654;DHT22;3363;50.942;7.034;2023-02-28T03:29:27;2.30;55.90
6654;DHT22;3363;50.942;7.034;2023-02-28T03:31:57;2.30;55.90
6654;DHT22;3363;50.942;7.034;2023-02-28T03:34:26;2.20;55.90
6654;DHT22;3363;50.942;7.034;2023-02-28T03:36:57;2.20;56.00
6654;DHT22;3363;50.942;7.034;2023-02-28T03:39:27;2.20;55.90
6654;DHT22;3363;50.942;7.034;2023-02-28T03:41:56;2.10;55.90
6654;DHT22;3363;50.942;7.034;2023-02-28T03:44:26;2.10;56.00
6654;DHT22;3363;50.942;7.034;2023-02-28T03:46:56;2.00;56.00
6654;DHT22;3363;50.942;7.034;2023-02-28T03:49:26;2.00;56.00
6654;DHT22;3363;50.942;7.034;2023-02-28T03:51:54;2.00;55.80
6654;DHT22;3363;50.942;7.034;2023-02-28T03:54:25;2.00;55.80
6654;DHT22;3363;50.942;7.034;2023-02-28T03:56:55;2.10;55.90
6654;DHT22;3363;50.942;7.034;2023-02-28T03:59:25;2.10;55.80
6654;DHT22;3363;50.942;7.034;2023-02-28T04:01:52;2.10;55.60
6654;DHT22;3363;50.942;7.034;2023-02-28T04:04:20;2.10;55.80
6654;DHT22;3363;50.942;7.034;2023-02-28T04:06:49;2.10;55.30
6654;DHT22;3363;50.942;7.034;2023-02-28T04:09:16;2.00;55.40
6654;DHT22;3363;50.942;7.034;2023-02-28T04:11:44;2.00;55.30
6654;DHT22;3363;50.942;7.034;2023-02-28T04:14:12;2.00;55.40
6654;DHT22;3363;50.942;7.034;2023-02-28T04:16:39;2.00;55.30
6654;DHT22;3363;50.942;7.034;2023-02-28T04:19:06;2.00;55.30
6654;DHT22;3363;50.942;7.034;2023-02-28T04:21:34;2.00;55.20
6654;DHT22;3363;50.942;7.034;2023-02-28T04:24:01;2.00;55.20
6654;DHT22;3363;50.942;7.034;2023-02-28T04:26:28;1.90;54.80
6654;DHT22;3363;50.942;7.034;2023-02-28T04:28:57;1.80;55.50
6654;DHT22;3363;50.942;7.034;2023-02-28T04:31:24;1.70;53.30
6654;DHT22;3363;50.942;7.034;2023-02-28T04:33:51;1.60;54.30
6654;DHT22;3363;50.942;7.034;2023-02-28T04:36:18;1.60;55.50
6654;DHT22;3363;50.942;7.034;2023-02-28T04:38:45;1.50;55.60
6654;DHT22;3363;50.942;7.034;2023-02-28T04:41:11;1.50;56.00
6654;DHT22;3363;50.942;7.034;2023-02-28T04:43:38;1.50;55.20
6654;DHT22;3363;50.942;7.034;2023-02-28T04:46:06;1.40;53.90
6654;DHT22;3363;50.942;7.034;2023-02-28T04:48:34;1.50;55.40
6654;DHT22;3363;50.942;7.034;2023-02-28T04:51:01;1.40;54.70
6654;DHT22;3363;50.942;7.034;2023-02-28T04:53:28;1.30;56.10
6654;DHT22;3363;50.942;7.034;2023-02-28T04:55:55;1.30;56.30
6654;DHT22;3363;50.942;7.034;2023-02-28T04:58:22;1.10;56.10
6654;DHT22;3363;50.942;7.034;2023-02-28T05:00:49;1.10;55.60
6654;DHT22;3363;50.942;7.034;2023-02-28T05:03:17;0.90;55.90
6654;DHT22;3363;50.942;7.034;2023-02-28T05:05:44;0.80;55.40
6654;DHT22;3363;50.942;7.034;2023-02-28T05:08:11;0.60;56.00
6654;DHT22;3363;50.942;7.034;2023-02-28T05:10:39;0.70;56.80
6654;DHT22;3363;50.942;7.034;2023-02-28T05:13:05;0.70;56.20
6654;DHT22;3363;50.942;7.034;2023-02-28T05:15:32;0.50;55.50
6654;DHT22;3363;50.942;7.034;2023-02-28T05:17:59;0.40;57.00
6654;DHT22;3363;50.942;7.034;2023-02-28T05:20:27;0.40;56.80
6654;DHT22;3363;50.942;7.034;2023-02-28T05:22:53;0.50;56.70
6654;DHT22;3363;50.942;7.034;2023-02-28T05:25:20;0.50;56.50
6654;DHT22;3363;50.942;7.034;2023-02-28T05:27:49;0.50;55.50
6654;DHT22;3363;50.942;7.034;2023-02-28T05:30:16;0.50;55.50
6654;DHT22;3363;50.942;7.034;2023-02-28T05:32:42;0.50;55.50
6654;DHT22;3363;50.942;7.034;2023-02-28T05:35:09;0.40;55.60
6654;DHT22;3363;50.942;7.034;2023-02-28T05:37:38;0.40;55.40
6654;DHT22;3363;50.942;7.034;2023-02-28T05:40:05;0.50;55.50
6654;DHT22;3363;50.942;7.034;2023-02-28T05:42:35;0.60;56.90
6654;DHT22;3363;50.942;7.034;2023-02-28T05:45:03;0.70;55.90
6654;DHT22;3363;50.942;7.034;2023-02-28T05:47:30;0.70;54.60
6654;DHT22;3363;50.942;7.034;2023-02-28T05:49:57;0.50;55.90
6654;DHT22;3363;50.942;7.034;2023-02-28T05:52:23;0.30;53.80
6654;DHT22;3363;50.942;7.034;2023-02-28T05:54:51;0.40;55.40
6654;DHT22;3363;50.942;7.034;2023-02-28T05:57:18;0.40;55.40
6654;DHT22;3363;50.942;7.034;2023-02-28T05:59:45;0.50;55.00
6654;DHT22;3363;50.942;7.034;2023-02-28T06:02:12;0.50;55.50
6654;DHT22;3363;50.942;7.034;2023-02-28T06:04:39;0.50;55.50
6654;DHT22;3363;50.942;7.034;2023-02-28T06:07:06;0.60;56.90
6654;DHT22;3363;50.942;7.034;2023-02-28T06:09:33;0.80;55.30
6654;DHT22;3363;50.942;7.034;2023-02-28T06:12:01;0.90;56.40
6654;DHT22;3363;50.942;7.034;2023-02-28T06:14:31;1.10;56.60
6654;DHT22;3363;50.942;7.034;2023-02-28T06:16:58;1.20;54.50
6654;DHT22;3363;50.942;7.034;2023-02-28T06:19:25;1.20;56.10
6654;DHT22;3363;50.942;7.034;2023-02-28T06:21:52;1.30;56.30
6654;DHT22;3363;50.942;7.034;2023-02-28T06:24:19;1.40;55.90
6654;DHT22;3363;50.942;7.034;2023-02-28T06:26:45;1.40;55.60
6654;DHT22;3363;50.942;7.034;2023-02-28T06:29:14;1.40;54.90
6654;DHT22;3363;50.942;7.034;2023-02-28T06:31:42;1.40;55.60
6654;DHT22;3363;50.942;7.034;2023-02-28T06:34:09;1.40;55.40
6654;DHT22;3363;50.942;7.034;2023-02-28T06:36:36;1.20;54.00
6654;DHT22;3363;50.942;7.034;2023-02-28T06:39:03;1.10;54.60
6654;DHT22;3363;50.942;7.034;2023-02-28T06:41:30;1.10;55.20
6654;DHT22;3363;50.942;7.034;2023-02-28T06:43:56;1.20;55.40
6654;DHT22;3363;50.942;7.034;2023-02-28T06:46:24;1.30;55.30
6654;DHT22;3363;50.942;7.034;2023-02-28T06:48:51;1.30;55.30
6654;DHT22;3363;50.942;7.034;2023-02-28T06:51:19;1.10;54.90
6654;DHT22;3363;50.942;7.034;2023-02-28T06:53:47;0.90;54.60
6654;DHT22;3363;50.942;7.034;2023-02-28T06:56:14;0.70;55.70
6654;DHT22;3363;50.942;7.034;2023-02-28T06:58:41;0.70;55.40
6654;DHT22;3363;50.942;7.034;2023-02-28T07:01:09;0.60;53.80
6654;DHT22;3363;50.942;7.034;2023-02-28T07:03:37;0.70;55.30
6654;DHT22;3363;50.942;7.034;2023-02-28T07:06:04;0.60;55.40
6654;DHT22;3363;50.942;7.034;2023-02-28T07:08:31;0.70;55.70
6654;DHT22;3363;50.942;7.034;2023-02-28T07:10:58;0.80;56.10
6654;DHT22;3363;50.942;7.034;2023-02-28T07:13:24;0.90;55.70
6654;DHT22;3363;50.942;7.034;2023-02-28T07:15:55;0.80;54.50
6654;DHT22;3363;50.942;7.034;2023-02-28T07:18:21;0.90;54.50
6654;DHT22;3363;50.942;7.034;2023-02-28T07:20:50;1.00;55.10
6654;DHT22;3363;50.942;7.034;2023-02-28T07:23:17;0.90;54.50
6654;DHT22;3363;50.942;7.034;2023-02-28T07:25:43;0.90;52.90
6654;DHT22;3363;50.942;7.034;2023-02-28T07:28:10;0.80;53.20
6654;DHT22;3363;50.942;7.034;2023-02-28T07:30:37;0.80;55.00
6654;DHT22;3363;50.942;7.034;2023-02-28T07:33:04;0.80;54.10
6654;DHT22;3363;50.942;7.034;2023-02-28T07:35:30;0.70;53.20
6654;DHT22;3363;50.942;7.034;2023-02-28T07:37:59;0.80;54.30
6654;DHT22;3363;50.942;7.034;2023-02-28T07:40:26;0.80;53.80
6654;DHT22;3363;50.942;7.034;2023-02-28T07:42:52;0.90;51.80
6654;DHT22;3363;50.942;7.034;2023-02-28T07:45:19;0.90;50.90
6654;DHT22;3363;50.942;7.034;2023-02-28T07:47:46;1.00;52.20
6654;DHT22;3363;50.942;7.034;2023-02-28T07:50:13;1.00;52.10
6654;DHT22;3363;50.942;7.034;2023-02-28T07:52:40;1.00;51.20
6654;DHT22;3363;50.942;7.034;2023-02-28T07:55:09;1.10;48.10
6654;DHT22;3363;50.942;7.034;2023-02-28T07:57:36;1.10;51.60
6654;DHT22;3363;50.942;7.034;2023-02-28T08:00:03;1.20;49.70
6654;DHT22;3363;50.942;7.034;2023-02-28T08:02:30;1.20;50.60
6654;DHT22;3363;50.942;7.034;2023-02-28T08:04:57;1.30;47.80
6654;DHT22;3363;50.942;7.034;2023-02-28T08:07:23;1.30;49.80
6654;DHT22;3363;50.942;7.034;2023-02-28T08:09:50;1.30;49.60
6654;DHT22;3363;50.942;7.034;2023-02-28T08:12:18;1.40;48.70
6654;DHT22;3363;50.942;7.034;2023-02-28T08:14:45;1.40;46.80
6654;DHT22;3363;50.942;7.034;2023-02-28T08:17:12;1.40;49.80
6654;DHT22;3363;50.942;7.034;2023-02-28T08:19:38;1.50;48.30
6654;DHT22;3363;50.942;7.034;2023-02-28T08:22:05;1.60;49.20
6654;DHT22;3363;50.942;7.034;2023-02-28T08:24:32;1.60;47.70
6654;DHT22;3363;50.942;7.034;2023-02-28T08:26:58;1.60;46.90
6654;DHT22;3363;50.942;7.034;2023-02-28T08:29:26;1.70;48.30
6654;DHT22;3363;50.942;7.034;2023-02-28T08:31:53;1.80;48.00
6654;DHT22;3363;50.942;7.034;2023-02-28T08:34:19;1.80;46.30
6654;DHT22;3363;50.942;7.034;2023-02-28T08:36:46;2.00;46.00
6654;DHT22;3363;50.942;7.034;2023-02-28T08:39:13;1.90;44.90
6654;DHT22;3363;50.942;7.034;2023-02-28T08:41:40;2.00;46.00
6654;DHT22;3363;50.942;7.034;2023-02-28T08:44:08;2.10;46.20
6654;DHT22;3363;50.942;7.034;2023-02-28T08:46:36;2.20;42.80
6654;DHT22;3363;50.942;7.034;2023-02-28T08:49:02;2.20;40.70
6654;DHT22;3363;50.942;7.034;2023-02-28T08:51:29;2.20;43.40
6654;DHT22;3363;50.942;7.034;2023-02-28T08:53:57;2.20;41.10
6654;DHT22;3363;50.942;7.034;2023-02-28T08:56:25;2.20;44.40
6654;DHT22;3363;50.942;7.034;2023-02-28T08:58:53;2.30;40.20
6654;DHT22;3363;50.942;7.034;2023-02-28T09:01:21;2.40;40.90
6654;DHT22;3363;50.942;7.034;2023-02-28T09:03:50;2.40;41.50
6654;DHT22;3363;50.942;7.034;2023-02-28T09:06:18;2.50;43.50
6654;DHT22;3363;50.942;7.034;2023-02-28T09:08:45;2.60;41.40
6654;DHT22;3363;50.942;7.034;2023-02-28T09:11:11;2.80;44.10
6654;DHT22;3363;50.942;7.034;2023-02-28T09:13:38;2.90;41.40
6654;DHT22;3363;50.942;7.034;2023-02-28T09:16:06;3.00;40.20
6654;DHT22;3363;50.942;7.034;2023-02-28T09:18:34;2.90;41.70
6654;DHT22;3363;50.942;7.034;2023-02-28T09:21:04;2.80;39.30
6654;DHT22;3363;50.942;7.034;2023-02-28T09:23:31;2.90;42.10
6654;DHT22;3363;50.942;7.034;2023-02-28T09:25:57;3.10;37.80
6654;DHT22;3363;50.942;7.034;2023-02-28T09:28:24;3.00;35.80
6654;DHT22;3363;50.942;7.034;2023-02-28T09:30:52;3.00;38.50
6654;DHT22;3363;50.942;7.034;2023-02-28T09:33:20;3.20;36.10
6654;DHT22;3363;50.942;7.034;2023-02-28T09:35:47;3.10;39.60
6654;DHT22;3363;50.942;7.034;2023-02-28T09:38:15;3.10;38.60
6654;DHT22;3363;50.942;7.034;2023-02-28T09:40:45;3.10;37.00
6654;DHT22;3363;50.942;7.034;2023-02-28T09:43:14;3.20;37.20
6654;DHT22;3363;50.942;7.034;2023-02-28T09:45:44;3.30;38.60
6654;DHT22;3363;50.942;7.034;2023-02-28T09:48:14;3.30;37.80
6654;DHT22;3363;50.942;7.034;2023-02-28T09:50:43;3.30;37.60
6654;DHT22;3363;50.942;7.034;2023-02-28T09:53:15;3.30;39.30
6654;DHT22;3363;50.942;7.034;2023-02-28T09:55:44;3.50;39.80
6654;DHT22;3363;50.942;7.034;2023-02-28T09:58:14;3.50;36.30
6654;DHT22;3363;50.942;7.034;2023-02-28T10:00:42;3.50;38.00
6654;DHT22;3363;50.942;7.034;2023-02-28T10:03:17;3.40;37.20
6654;DHT22;3363;50.942;7.034;2023-02-28T10:05:49;3.40;36.20
6654;DHT22;3363;50.942;7.034;2023-02-28T10:08:21;3.50;37.70
6654;DHT22;3363;50.942;7.034;2023-02-28T10:10:51;3.50;38.40
6654;DHT22;3363;50.942;7.034;2023-02-28T10:13:22;3.70;37.90
6654;DHT22;3363;50.942;7.034;2023-02-28T10:15:51;3.80;37.90
6654;DHT22;3363;50.942;7.034;2023-02-28T10:18:20;3.80;39.30
6654;DHT22;3363;50.942;7.034;2023-02-28T10:20:47;3.80;36.00
6654;DHT22;3363;50.942;7.034;2023-02-28T10:23:16;3.80;38.50
6654;DHT22;3363;50.942;7.034;2023-02-28T10:25:47;3.90;35.30
6654;DHT22;3363;50.942;7.034;2023-02-28T10:28:17;3.90;39.30
6654;DHT22;3363;50.942;7.034;2023-02-28T10:30:45;4.00;36.00
6654;DHT22;3363;50.942;7.034;2023-02-28T10:33:15;3.80;37.20
6654;DHT22;3363;50.942;7.034;2023-02-28T10:35:44;3.90;35.90
6654;DHT22;3363;50.942;7.034;2023-02-28T10:38:14;4.00;37.30
6654;DHT22;3363;50.942;7.034;2023-02-28T10:40:41;4.00;35.30
6654;DHT22;3363;50.942;7.034;2023-02-28T10:43:17;4.10;38.50
6654;DHT22;3363;50.942;7.034;2023-02-28T10:45:51;4.30;39.00
6654;DHT22;3363;50.942;7.034;2023-02-28T10:48:27;4.40;37.40
6654;DHT22;3363;50.942;7.034;2023-02-28T10:50:55;4.30;37.50
6654;DHT22;3363;50.942;7.034;2023-02-28T10:53:27;4.30;37.10
6654;DHT22;3363;50.942;7.034;2023-02-28T10:55:58;4.30;37.60
6654;DHT22;3363;50.942;7.034;2023-02-28T10:58:28;4.30;36.20
6654;DHT22;3363;50.942;7.034;2023-02-28T11:00:56;4.20;34.30
6654;DHT22;3363;50.942;7.034;2023-02-28T11:03:25;4.30;37.20
6654;DHT22;3363;50.942;7.034;2023-02-28T11:05:52;4.30;39.30
6654;DHT22;3363;50.942;7.034;2023-02-28T11:08:18;4.40;37.60
6654;DHT22;3363;50.942;7.034;2023-02-28T11:10:46;4.50;36.90
6654;DHT22;3363;50.942;7.034;2023-02-28T11:13:16;4.50;35.90
6654;DHT22;3363;50.942;7.034;2023-02-28T11:15:46;4.40;36.00
6654;DHT22;3363;50.942;7.034;2023-02-28T11:18:21;4.30;37.00
6654;DHT22;3363;50.942;7.034;2023-02-28T11:20:49;4.30;37.70
6654;DHT22;3363;50.942;7.034;2023-02-28T11:23:17;4.40;36.00
6654;DHT22;3363;50.942;7.034;2023-02-28T11:25:46;4.30;37.00
6654;DHT22;3363;50.942;7.034;2023-02-28T11:28:23;4.30;38.10
6654;DHT22;3363;50.942;7.034;2023-02-28T11:31:00;4.20;38.30
6654;DHT22;3363;50.942;7.034;2023-02-28T11:33:28;4.30;40.40
6654;DHT22;3363;50.942;7.034;2023-02-28T11:35:56;4.30;39.40
6654;DHT22;3363;50.942;7.034;2023-02-28T11:38:23;4.40;37.60
6654;DHT22;3363;50.942;7.034;2023-02-28T11:40:53;4.30;35.20
6654;DHT22;3363;50.942;7.034;2023-02-28T11:43:27;4.30;35.40
6654;DHT22;3363;50.942;7.034;2023-02-28T11:46:04;4.20;36.90
6654;DHT22;3363;50.942;7.034;2023-02-28T11:48:33;4.20;34.40
6654;DHT22;3363;50.942;7.034;2023-02-28T11:51:04;4.30;36.40
6654;DHT22;3363;50.942;7.034;2023-02-28T11:53:36;4.60;34.90
6654;DHT22;3363;50.942;7.034;2023-02-28T11:56:08;4.50;38.50
6654;DHT22;3363;50.942;7.034;2023-02-28T11:58:39;4.70;34.20
6654;DHT22;3363;50.942;7.034;2023-02-28T12:03:58;4.60;34.50
6654;DHT22;3363;50.942;7.034;2023-02-28T12:06:31;4.50;36.20
6654;DHT22;3363;50.942;7.034;2023-02-28T12:09:02;4.60;37.40
6654;DHT22;3363;50.942;7.034;2023-02-28T12:11:34;4.60;32.60
6654;DHT22;3363;50.942;7.034;2023-02-28T12:14:07;4.60;36.70
6654;DHT22;3363;50.942;7.034;2023-02-28T12:19:26;4.80;33.60
6654;DHT22;3363;50.942;7.034;2023-02-28T12:22:09;4.90;37.30
6654;DHT22;3363;50.942;7.034;2023-02-28T12:24:50;5.00;35.40
6654;DHT22;3363;50.942;7.034;2023-02-28T12:27:18;4.90;35.50
6654;DHT22;3363;50.942;7.034;2023-02-28T12:29:47;5.00;33.80
6654;DHT22;3363;50.942;7.034;2023-02-28T12:32:16;4.80;35.00
6654;DHT22;3363;50.942;7.034;2023-02-28T12:34:47;4.80;37.50
6654;DHT22;3363;50.942;7.034;2023-02-28T12:37:14;4.80;36.30
6654;DHT22;3363;50.942;7.034;2023-02-28T12:39:43;4.70;37.90
6654;DHT22;3363;50.942;7.034;2023-02-28T12:42:11;4.80;35.90
6654;DHT22;3363;50.942;7.034;2023-02-28T12:44:40;4.90;38.50
6654;DHT22;3363;50.942;7.034;2023-02-28T12:47:11;4.90;35.00
6654;DHT22;3363;50.942;7.034;2023-02-28T12:49:41;4.90;36.70
6654;DHT22;3363;50.942;7.034;2023-02-28T12:52:10;4.90;35.60
6654;DHT22;3363;50.942;7.034;2023-02-28T12:54:40;4.90;34.70
6654;DHT22;3363;50.942;7.034;2023-02-28T12:57:10;5.00;35.70
6654;DHT22;3363;50.942;7.034;2023-02-28T12:59:40;4.90;37.60
6654;DHT22;3363;50.942;7.034;2023-02-28T13:02:29;4.80;37.50
6654;DHT22;3363;50.942;7.034;2023-02-28T13:05:07;5.00;37.00
6654;DHT22;3363;50.942;7.034;2023-02-28T13:07:58;5.00;37.80
6654;DHT22;3363;50.942;7.034;2023-02-28T13:10:37;4.90;37.60
6654;DHT22;3363;50.942;7.034;2023-02-28T13:13:04;5.00;34.90
6654;DHT22;3363;50.942;7.034;2023-02-28T13:15:31;5.10;37.80
6654;DHT22;3363;50.942;7.034;2023-02-28T13:18:03;5.20;37.90
6654;DHT22;3363;50.942;7.034;2023-02-28T13:20:31;5.10;34.00
6654;DHT22;3363;50.942;7.034;2023-02-28T13:23:01;5.00;35.00
6654;DHT22;3363;50.942;7.034;2023-02-28T13:28:43;5.30;35.60
6654;DHT22;3363;50.942;7.034;2023-02-28T13:31:04;5.20;36.10
6654;DHT22;3363;50.942;7.034;2023-02-28T13:33:31;5.40;36.20
6654;DHT22;3363;50.942;7.034;2023-02-28T13:36:06;5.30;34.70
6654;DHT22;3363;50.942;7.034;2023-02-28T13:38:35;5.30;34.90
6654;DHT22;3363;50.942;7.034;2023-02-28T13:43:59;5.40;32.30
6654;DHT22;3363;50.942;7.034;2023-02-28T13:46:28;5.40;34.10
6654;DHT22;3363;50.942;7.034;2023-02-28T13:48:55;5.40;32.70
6654;DHT22;3363;50.942;7.034;2023-02-28T13:51:34;5.30;32.80
6654;DHT22;3363;50.942;7.034;2023-02-28T13:54:09;5.30;36.20
6654;DHT22;3363;50.942;7.034;2023-02-28T13:56:43;5.30;35.00
6654;DHT22;3363;50.942;7.034;2023-02-28T13:59:17;5.40;34.20
6654;DHT22;3363;50.942;7.034;2023-02-28T14:01:51;5.50;33.60
6654;DHT22;3363;50.942;7.034;2023-02-28T14:07:04;5.60;32.50
6654;DHT22;3363;50.942;7.034;2023-02-28T14:09:31;5.70;32.60
6654;DHT22;3363;50.942;7.034;2023-02-28T14:14:53;5.50;32.80
6654;DHT22;3363;50.942;7.034;2023-02-28T14:17:22;5.60;35.20
6654;DHT22;3363;50.942;7.034;2023-02-28T14:19:50;5.60;35.60
6654;DHT22;3363;50.942;7.034;2023-02-28T14:22:21;5.70;36.30
6654;DHT22;3363;50.942;7.034;2023-02-28T14:25:02;5.60;36.30
6654;DHT22;3363;50.942;7.034;2023-02-28T14:27:32;5.60;33.40
6654;DHT22;3363;50.942;7.034;2023-02-28T14:30:04;5.70;34.70
6654;DHT22;3363;50.942;7.034;2023-02-28T14:32:43;5.70;34.90
6654;DHT22;3363;50.942;7.034;2023-02-28T14:35:15;5.70;35.10
6654;DHT22;3363;50.942;7.034;2023-02-28T14:37:44;5.80;32.30
6654;DHT22;3363;50.942;7.034;2023-02-28T14:40:12;5.70;34.20
6654;DHT22;3363;50.942;7.034;2023-02-28T14:42:46;5.60;32.50
6654;DHT22;3363;50.942;7.034;2023-02-28T14:45:17;5.70;36.70
6654;DHT22;3363;50.942;7.034;2023-02-28T14:47:45;5.80;34.90
6654;DHT22;3363;50.942;7.034;2023-02-28T14:50:17;5.80;35.20
6654;DHT22;3363;50.942;7.034;2023-02-28T14:52:44;5.80;32.70
6654;DHT22;3363;50.942;7.034;2023-02-28T14:55:12;5.80;31.90
6654;DHT22;3363;50.942;7.034;2023-02-28T14:57:41;5.80;31.40
6654;DHT22;3363;50.942;7.034;2023-02-28T15:00:12;5.80;34.70
6654;DHT22;3363;50.942;7.034;2023-02-28T15:02:40;5.80;32.70
6654;DHT22;3363;50.942;7.034;2023-02-28T15:08:03;5.80;32.70
6654;DHT22;3363;50.942;7.034;2023-02-28T15:10:30;5.70;35.20
6654;DHT22;3363;50.942;7.034;2023-02-28T15:12:57;5.70;34.10
6654;DHT22;3363;50.942;7.034;2023-02-28T15:15:26;5.80;33.10
6654;DHT22;3363;50.942;7.034;2023-02-28T15:17:54;5.80;32.30
6654;DHT22;3363;50.942;7.034;2023-02-28T15:20:22;5.80;35.60
6654;DHT22;3363;50.942;7.034;2023-02-28T15:22:50;5.90;31.60
6654;DHT22;3363;50.942;7.034;2023-02-28T15:25:19;5.90;33.30
6654;DHT22;3363;50.942;7.034;2023-02-28T15:27:47;5.90;34.20
6654;DHT22;3363;50.942;7.034;2023-02-28T15:30:15;5.90;32.80
6654;DHT22;3363;50.942;7.034;2023-02-28T15:32:43;5.90;35.00
6654;DHT22;3363;50.942;7.034;2023-02-28T15:35:20;5.80;33.80
6654;DHT22;3363;50.942;7.034;2023-02-28T15:37:47;5.80;33.20
6654;DHT22;3363;50.942;7.034;2023-02-28T15:40:15;5.80;34.60
6654;DHT22;3363;50.942;7.034;2023-02-28T15:42:56;5.90;32.80
6654;DHT22;3363;50.942;7.034;2023-02-28T15:45:27;5.80;33.40
6654;DHT22;3363;50.942;7.034;2023-02-28T15:47:54;5.90;34.80
6654;DHT22;3363;50.942;7.034;2023-02-28T15:50:21;5.80;36.20
6654;DHT22;3363;50.942;7.034;2023-02-28T15:52:48;5.80;36.20
6654;DHT22;3363;50.942;7.034;2023-02-28T15:55:17;5.80;34.10
6654;DHT22;3363;50.942;7.034;2023-02-28T15:57:47;5.70;37.20
6654;DHT22;3363;50.942;7.034;2023-02-28T16:00:15;5.70;35.10
6654;DHT22;3363;50.942;7.034;2023-02-28T16:02:42;5.70;35.70
6654;DHT22;3363;50.942;7.034;2023-02-28T16:05:19;5.60;37.40
6654;DHT22;3363;50.942;7.034;2023-02-28T16:07:53;5.80;33.70
6654;DHT22;3363;50.942;7.034;2023-02-28T16:10:20;5.70;36.40
6654;DHT22;3363;50.942;7.034;2023-02-28T16:12:49;5.70;34.20
6654;DHT22;3363;50.942;7.034;2023-02-28T16:15:18;5.60;36.30
6654;DHT22;3363;50.942;7.034;2023-02-28T16:17:45;5.50;36.10
6654;DHT22;3363;50.942;7.034;2023-02-28T16:20:13;5.50;35.70
6654;DHT22;3363;50.942;7.034;2023-02-28T16:22:40;5.50;36.30
6654;DHT22;3363;50.942;7.034;2023-02-28T16:25:08;5.40;36.00
6654;DHT22;3363;50.942;7.034;2023-02-28T16:27:35;5.40;36.90
6654;DHT22;3363;50.942;7.034;2023-02-28T16:30:05;5.40;35.30
6654;DHT22;3363;50.942;7.034;2023-02-28T16:32:32;5.30;35.30
6654;DHT22;3363;50.942;7.034;2023-02-28T16:35:01;5.30;35.90
6654;DHT22;3363;50.942;7.034;2023-02-28T16:37:27;5.30;37.30
6654;DHT22;3363;50.942;7.034;2023-02-28T16:39:54;5.20;36.10
6654;DHT22;3363;50.942;7.034;2023-02-28T16:42:21;5.10;36.90
6654;DHT22;3363;50.942;7.034;2023-02-28T16:44:48;5.10;37.70
6654;DHT22;3363;50.942;7.034;2023-02-28T16:47:16;5.10;36.00
6654;DHT22;3363;50.942;7.034;2023-02-28T16:49:43;5.10;37.10
6654;DHT22;3363;50.942;7.034;2023-02-28T16:52:10;5.10;36.90
6654;DHT22;3363;50.942;7.034;2023-02-28T16:54:37;5.00;38.80
6654;DHT22;3363;50.942;7.034;2023-02-28T16:57:04;5.00;37.70
6654;DHT22;3363;50.942;7.034;2023-02-28T16:59:31;4.90;39.20